createdAt,value
2023-07-24T00:00:23.607Z,47.41
2023-07-24T00:02:51.731Z,47.23
2023-07-24T00:05:21.093Z,47.10
2023-07-24T00:07:49.021Z,47.35
2023-07-24T00:10:16.874Z,47.29
2023-07-24T00:12:44.878Z,47.37
2023-07-24T00:15:13.122Z,47.42
2023-07-24T00:17:41.295Z,47.46
2023-07-24T00:20:10.000Z,47.54
2023-07-24T00:22:39.533Z,47.67
2023-07-24T00:25:07.950Z,47.63
2023-07-24T00:27:36.496Z,47.68
2023-07-24T00:30:04.769Z,48.08
2023-07-24T00:32:32.790Z,48.08
2023-07-24T00:35:00.903Z,48.13
2023-07-24T00:37:28.808Z,48.22
2023-07-24T00:39:58.174Z,48.16
2023-07-24T00:42:27.269Z,48.21
2023-07-24T00:44:55.303Z,48.52
2023-07-24T00:47:24.784Z,48.39
2023-07-24T00:49:52.717Z,48.17
2023-07-24T00:52:20.989Z,48.50
2023-07-24T00:54:49.468Z,48.58
2023-07-24T00:57:19.255Z,48.39
2023-07-24T00:59:47.505Z,48.45
2023-07-24T01:02:15.484Z,48.47
2023-07-24T01:04:43.583Z,48.48
2023-07-24T01:07:11.585Z,48.27
2023-07-24T01:09:39.638Z,48.02
2023-07-24T01:12:20.257Z,47.94
2023-07-24T01:14:54.044Z,47.59
2023-07-24T01:17:28.269Z,47.33
2023-07-24T01:20:00.063Z,46.82
2023-07-24T01:22:40.655Z,46.55
2023-07-24T01:25:13.574Z,46.42
2023-07-24T01:27:47.468Z,46.37
2023-07-24T01:30:20.223Z,45.72
2023-07-24T01:32:48.297Z,45.35
2023-07-24T01:35:16.594Z,45.50
2023-07-24T01:37:45.582Z,45.51
2023-07-24T01:40:14.748Z,45.51
2023-07-24T01:42:43.423Z,45.20
2023-07-24T01:45:13.572Z,45.21
2023-07-24T01:47:41.624Z,44.95
2023-07-24T01:50:10.487Z,45.04
2023-07-24T01:52:38.837Z,44.78
2023-07-24T01:55:07.843Z,44.46
2023-07-24T01:57:35.900Z,44.28
2023-07-24T02:00:03.976Z,43.91
2023-07-24T02:02:33.372Z,43.89
2023-07-24T02:05:01.274Z,43.63
2023-07-24T02:07:29.256Z,43.30
2023-07-24T02:09:57.360Z,42.97
2023-07-24T02:12:25.411Z,42.96
2023-07-24T02:14:56.636Z,42.67
2023-07-24T02:17:25.747Z,42.51
2023-07-24T02:19:55.569Z,42.60
2023-07-24T02:22:23.493Z,42.40
2023-07-24T02:24:51.459Z,42.32
2023-07-24T02:27:28.179Z,42.43
2023-07-24T02:29:58.672Z,42.50
2023-07-24T02:32:26.919Z,42.42
2023-07-24T02:34:56.352Z,42.66
2023-07-24T02:37:24.581Z,42.67
2023-07-24T02:39:53.926Z,43.01
2023-07-24T02:42:21.846Z,43.17
2023-07-24T02:44:49.867Z,43.48
2023-07-24T02:47:18.252Z,43.61
2023-07-24T02:49:46.340Z,43.80
2023-07-24T02:52:15.714Z,43.72
2023-07-24T02:54:43.959Z,44.17
2023-07-24T02:57:12.131Z,44.20
2023-07-24T02:59:39.987Z,44.63
2023-07-24T03:02:07.937Z,44.47
2023-07-24T03:04:35.991Z,44.58
2023-07-24T03:07:04.091Z,44.76
2023-07-24T03:09:33.349Z,44.89
2023-07-24T03:12:01.321Z,45.12
2023-07-24T03:14:29.342Z,45.06
2023-07-24T03:16:57.505Z,45.16
2023-07-24T03:19:25.593Z,45.34
2023-07-24T03:21:53.548Z,44.99
2023-07-24T03:24:21.524Z,45.21
2023-07-24T03:26:50.893Z,45.24
2023-07-24T03:29:18.879Z,45.69
2023-07-24T03:31:47.216Z,45.49
2023-07-24T03:34:15.195Z,45.53
2023-07-24T03:36:43.537Z,45.60
2023-07-24T03:39:12.311Z,45.76
2023-07-24T03:41:40.462Z,45.67
2023-07-24T03:44:09.901Z,45.65
2023-07-24T03:46:37.875Z,45.64
2023-07-24T03:49:06.016Z,45.80
2023-07-24T03:51:34.485Z,45.95
2023-07-24T03:54:02.426Z,45.63
2023-07-24T03:56:30.659Z,45.99
2023-07-24T03:58:58.922Z,46.07
2023-07-24T04:01:29.463Z,45.99
2023-07-24T04:04:01.726Z,46.20
2023-07-24T04:06:29.898Z,46.14
2023-07-24T04:08:59.414Z,46.13
2023-07-24T04:11:31.457Z,46.25
2023-07-24T04:13:59.514Z,46.51
2023-07-24T04:16:29.666Z,46.56
2023-07-24T04:18:57.723Z,46.51
2023-07-24T04:21:25.760Z,46.62
2023-07-24T04:23:53.724Z,46.82
2023-07-24T04:26:21.861Z,46.85
2023-07-24T04:28:50.020Z,46.50
2023-07-24T04:31:17.924Z,46.67
2023-07-24T04:33:47.511Z,46.76
2023-07-24T04:36:18.097Z,46.66
2023-07-24T04:38:47.625Z,46.45
2023-07-24T04:41:15.534Z,46.66
2023-07-24T04:43:43.596Z,46.22
2023-07-24T04:46:11.731Z,46.29
2023-07-24T04:48:39.770Z,46.38
2023-07-24T04:51:09.123Z,46.20
2023-07-24T04:53:37.031Z,46.26
2023-07-24T04:56:05.103Z,45.79
2023-07-24T04:58:33.686Z,45.74
2023-07-24T05:01:05.249Z,45.29
2023-07-24T05:03:33.582Z,44.74
2023-07-24T05:06:01.600Z,44.59
2023-07-24T05:08:31.126Z,43.92
2023-07-24T05:11:00.032Z,43.41
2023-07-24T05:13:28.105Z,43.53
2023-07-24T05:15:56.093Z,43.58
2023-07-24T05:18:24.109Z,44.12
2023-07-24T05:20:55.908Z,44.11
2023-07-24T05:23:28.001Z,44.55
2023-07-24T05:26:02.298Z,44.29
2023-07-24T05:28:35.194Z,44.69
2023-07-24T05:31:21.409Z,44.66
2023-07-24T05:33:49.344Z,44.43
2023-07-24T05:36:17.338Z,44.73
2023-07-24T05:38:45.512Z,44.65
2023-07-24T05:41:14.884Z,45.04
2023-07-24T05:43:42.788Z,44.54
2023-07-24T05:46:11.262Z,44.71
2023-07-24T05:48:39.147Z,44.94
2023-07-24T05:51:07.640Z,45.06
2023-07-24T05:53:41.981Z,45.24
2023-07-24T05:56:10.555Z,45.20
2023-07-24T05:58:39.768Z,44.93
2023-07-24T06:01:11.215Z,45.17
2023-07-24T06:03:40.245Z,45.12
2023-07-24T06:06:08.358Z,44.82
2023-07-24T06:08:36.230Z,44.86
2023-07-24T06:11:04.191Z,44.40
2023-07-24T06:13:32.154Z,44.32
2023-07-24T06:16:01.668Z,44.33
2023-07-24T06:18:35.463Z,44.46
2023-07-24T06:21:06.786Z,44.78
2023-07-24T06:23:34.813Z,44.72
2023-07-24T06:26:02.837Z,44.57
2023-07-24T06:28:31.046Z,44.64
2023-07-24T06:30:58.970Z,44.68
2023-07-24T06:33:28.217Z,44.91
2023-07-24T06:35:56.176Z,44.13
2023-07-24T06:38:24.918Z,44.29
2023-07-24T06:40:52.998Z,44.08
2023-07-24T06:43:21.043Z,44.40
2023-07-24T06:45:52.092Z,44.51
2023-07-24T06:48:24.379Z,44.45
2023-07-24T06:50:53.817Z,44.14
2023-07-24T06:53:25.125Z,43.78
2023-07-24T06:55:53.139Z,43.81
2023-07-24T06:58:21.152Z,44.16
2023-07-24T07:00:49.109Z,43.94
2023-07-24T07:03:17.153Z,44.40
2023-07-24T07:05:45.174Z,44.29
2023-07-24T07:08:14.619Z,43.44
2023-07-24T07:10:42.860Z,43.20
2023-07-24T07:13:14.277Z,42.24
2023-07-24T07:15:42.228Z,41.87
2023-07-24T07:18:10.421Z,41.01
2023-07-24T07:20:40.984Z,40.61
2023-07-24T07:23:21.060Z,39.82
2023-07-24T07:25:51.382Z,39.16
2023-07-24T07:28:20.151Z,39.45
2023-07-24T07:30:48.204Z,39.33
2023-07-24T07:33:23.001Z,38.99
2023-07-24T07:35:51.969Z,39.51
2023-07-24T07:38:26.922Z,39.31
2023-07-24T07:40:56.636Z,39.12
2023-07-24T07:43:25.702Z,38.52
2023-07-24T07:45:58.153Z,35.92
2023-07-24T07:48:26.428Z,36.34
2023-07-24T07:50:55.234Z,37.34
2023-07-24T07:53:23.199Z,38.04
2023-07-24T07:55:59.357Z,39.14
2023-07-24T07:58:27.994Z,38.93
2023-07-24T08:00:56.018Z,38.81
2023-07-24T08:03:24.623Z,38.28
2023-07-24T08:06:07.220Z,37.58
2023-07-24T08:08:35.239Z,36.94
2023-07-24T08:11:08.370Z,37.35
2023-07-24T08:13:38.430Z,38.69
2023-07-24T08:16:07.753Z,38.71
2023-07-24T08:18:36.015Z,39.41
2023-07-24T08:21:04.283Z,39.35
2023-07-24T08:23:32.246Z,39.29
2023-07-24T08:26:03.733Z,39.03
2023-07-24T08:28:37.888Z,38.67
2023-07-24T08:31:07.531Z,38.43
2023-07-24T08:33:35.973Z,38.15
2023-07-24T08:36:05.221Z,38.25
2023-07-24T08:38:34.747Z,37.83
2023-07-24T08:41:04.658Z,37.25
2023-07-24T08:43:38.883Z,36.60
2023-07-24T08:46:20.579Z,36.53
2023-07-24T08:48:48.704Z,35.87
2023-07-24T08:51:20.117Z,35.97
2023-07-24T08:53:49.570Z,35.77
2023-07-24T08:56:17.791Z,36.18
2023-07-24T08:58:49.742Z,36.52
2023-07-24T09:01:18.036Z,36.64
2023-07-24T09:03:53.420Z,37.01
2023-07-24T09:06:21.484Z,37.23
2023-07-24T09:08:49.906Z,37.00
2023-07-24T09:11:18.240Z,36.72
2023-07-24T09:13:46.637Z,36.47
2023-07-24T09:16:25.507Z,36.06
2023-07-24T09:21:32.765Z,35.81
2023-07-24T09:24:13.320Z,35.60
2023-07-24T09:26:58.500Z,35.23
2023-07-24T09:29:35.415Z,35.06
2023-07-24T09:32:07.152Z,34.83
2023-07-24T09:34:35.138Z,34.96
2023-07-24T09:37:28.795Z,35.24
2023-07-24T09:39:57.032Z,35.92
2023-07-24T09:42:38.879Z,36.07
2023-07-24T09:45:13.266Z,36.24
2023-07-24T09:50:15.094Z,36.53
2023-07-24T09:52:46.287Z,36.27
2023-07-24T09:55:22.473Z,36.13
2023-07-24T09:57:51.766Z,36.28
2023-07-24T10:00:21.067Z,35.30
2023-07-24T10:02:51.544Z,35.02
2023-07-24T10:05:20.101Z,35.32
2023-07-24T10:07:49.362Z,35.73
2023-07-24T10:10:18.342Z,35.80
2023-07-24T10:12:46.861Z,35.50
2023-07-24T10:15:16.605Z,35.75
2023-07-24T10:17:44.666Z,35.91
2023-07-24T10:20:14.907Z,35.94
2023-07-24T10:22:48.890Z,36.50
2023-07-24T10:28:20.119Z,36.23
2023-07-24T10:31:00.463Z,36.35
2023-07-24T10:33:33.147Z,36.37
2023-07-24T10:36:15.428Z,36.29
2023-07-24T10:38:44.298Z,36.43
2023-07-24T10:41:16.478Z,36.74
2023-07-24T10:43:49.008Z,36.78
2023-07-24T10:46:19.439Z,36.47
2023-07-24T10:48:49.741Z,36.43
2023-07-24T10:51:19.517Z,36.05
2023-07-24T10:53:49.673Z,36.14
2023-07-24T10:56:18.953Z,36.65
2023-07-24T10:58:46.941Z,37.08
2023-07-24T11:01:15.555Z,36.99
2023-07-24T11:03:44.883Z,37.24
2023-07-24T11:06:19.242Z,36.79
2023-07-24T11:08:55.325Z,36.40
2023-07-24T11:11:23.940Z,36.21
2023-07-24T11:13:52.249Z,34.54
2023-07-24T11:16:20.269Z,32.60
2023-07-24T11:18:54.628Z,30.70
2023-07-24T11:21:25.510Z,28.38
2023-07-24T11:23:55.955Z,26.23
2023-07-24T11:26:25.068Z,24.91
2023-07-24T11:28:54.303Z,24.24
2023-07-24T11:31:22.708Z,24.09
2023-07-24T11:33:51.979Z,24.14
2023-07-24T11:36:20.137Z,24.89
2023-07-24T11:38:50.037Z,25.30
2023-07-24T11:41:19.687Z,25.83
2023-07-24T11:43:49.760Z,25.76
2023-07-24T11:46:28.824Z,25.88
2023-07-24T11:48:58.862Z,25.94
2023-07-24T11:51:29.474Z,26.59
2023-07-24T11:54:09.262Z,27.79
2023-07-24T11:56:37.565Z,28.04
2023-07-24T11:59:13.200Z,28.65
2023-07-24T12:01:41.129Z,28.62
2023-07-24T12:04:09.362Z,29.09
2023-07-24T12:06:37.671Z,29.47
2023-07-24T12:09:08.012Z,30.15
2023-07-24T12:11:41.498Z,30.41
2023-07-24T12:14:09.568Z,30.69
2023-07-24T12:16:37.893Z,31.19
2023-07-24T12:19:07.090Z,31.65
2023-07-24T12:21:35.315Z,31.77
2023-07-24T12:24:05.596Z,31.49
2023-07-24T12:26:34.909Z,31.72
2023-07-24T12:29:03.074Z,31.73
2023-07-24T12:31:31.311Z,31.33
2023-07-24T12:33:59.589Z,31.83
2023-07-24T12:36:27.591Z,31.87
2023-07-24T12:38:55.691Z,31.37
2023-07-24T12:41:23.601Z,31.77
2023-07-24T12:43:52.956Z,31.73
2023-07-24T12:46:21.016Z,31.78
2023-07-24T12:48:49.429Z,31.43
2023-07-24T12:51:17.355Z,31.71
2023-07-24T12:53:53.200Z,32.01
2023-07-24T12:56:23.118Z,32.21
2023-07-24T12:58:52.371Z,32.50
2023-07-24T13:01:20.518Z,32.01
2023-07-24T13:03:48.696Z,32.41
2023-07-24T13:06:16.705Z,32.61
2023-07-24T13:08:44.880Z,32.49
2023-07-24T13:11:12.900Z,32.13
2023-07-24T13:13:40.885Z,32.02
2023-07-24T13:16:10.394Z,31.81
2023-07-24T13:18:38.488Z,31.83
2023-07-24T13:21:08.906Z,32.17
2023-07-24T13:23:37.116Z,31.87
2023-07-24T13:26:07.260Z,31.89
2023-07-24T13:28:35.308Z,31.70
2023-07-24T13:31:17.206Z,31.73
2023-07-24T13:33:45.744Z,32.06
2023-07-24T13:36:13.952Z,32.51
2023-07-24T13:38:42.697Z,32.57
2023-07-24T13:41:10.923Z,32.44
2023-07-24T13:43:39.110Z,32.84
2023-07-24T13:46:08.685Z,32.87
2023-07-24T13:48:38.412Z,32.65
2023-07-24T13:51:06.787Z,33.00
2023-07-24T13:53:34.848Z,32.58
2023-07-24T13:56:02.778Z,32.75
2023-07-24T13:58:30.821Z,32.97
2023-07-24T14:01:00.027Z,32.40
2023-07-24T14:03:30.697Z,32.06
2023-07-24T14:06:00.682Z,31.18
2023-07-24T14:08:28.737Z,31.43
2023-07-24T14:10:56.983Z,30.98
2023-07-24T14:13:25.288Z,30.85
2023-07-24T14:15:53.305Z,30.95
2023-07-24T14:18:21.548Z,31.00
2023-07-24T14:20:49.634Z,30.70
2023-07-24T14:23:18.972Z,30.95
2023-07-24T14:25:49.462Z,31.13
2023-07-24T14:28:17.378Z,31.06
2023-07-24T14:30:45.431Z,31.12
2023-07-24T14:33:13.529Z,31.55
2023-07-24T14:35:41.554Z,31.54
2023-07-24T14:38:10.410Z,30.99
2023-07-24T14:40:40.875Z,31.19
2023-07-24T14:43:08.870Z,31.14
2023-07-24T14:45:43.787Z,31.30
2023-07-24T14:48:13.973Z,31.49
2023-07-24T14:50:42.293Z,31.49
2023-07-24T14:53:10.731Z,31.60
2023-07-24T14:55:40.901Z,31.20
2023-07-24T14:58:09.088Z,31.27
2023-07-24T15:00:37.257Z,31.39
2023-07-24T15:03:05.876Z,31.53
2023-07-24T15:05:34.566Z,31.65
2023-07-24T15:08:03.079Z,30.75
2023-07-24T15:10:37.505Z,30.93
2023-07-24T15:13:07.028Z,30.96
2023-07-24T15:15:35.174Z,31.42
2023-07-24T15:18:04.231Z,31.55
2023-07-24T15:20:32.304Z,31.67
2023-07-24T15:23:00.978Z,31.63
2023-07-24T15:25:29.276Z,31.49
2023-07-24T15:27:58.673Z,31.34
2023-07-24T15:30:29.771Z,31.58
2023-07-24T15:32:58.004Z,31.36
2023-07-24T15:35:26.135Z,30.76
2023-07-24T15:37:54.304Z,30.97
2023-07-24T15:40:22.286Z,30.69
2023-07-24T15:42:51.576Z,30.91
2023-07-24T15:45:22.139Z,31.03
2023-07-24T15:47:51.460Z,31.51
2023-07-24T15:50:19.818Z,31.36
2023-07-24T15:52:51.592Z,31.39
2023-07-24T15:55:19.776Z,30.82
2023-07-24T15:57:50.050Z,30.65
2023-07-24T16:00:18.423Z,30.80
2023-07-24T16:02:47.723Z,30.76
2023-07-24T16:05:28.514Z,30.93
2023-07-24T16:08:02.043Z,30.68
2023-07-24T16:10:30.373Z,30.92
2023-07-24T16:12:58.425Z,30.86
2023-07-24T16:20:30.263Z,31.16
2023-07-24T16:22:58.440Z,31.17
2023-07-24T16:25:28.357Z,31.41
2023-07-24T16:28:00.088Z,31.38
2023-07-24T16:30:29.233Z,31.62
2023-07-24T16:33:00.483Z,31.75
2023-07-24T16:35:30.568Z,31.45
2023-07-24T16:37:58.468Z,31.31
2023-07-24T16:40:27.102Z,31.30
2023-07-24T16:43:00.473Z,31.27
2023-07-24T16:45:37.082Z,31.21
2023-07-24T16:48:08.466Z,31.04
2023-07-24T16:50:40.774Z,31.19
2023-07-24T16:53:14.726Z,31.41
2023-07-24T16:55:43.298Z,31.36
2023-07-24T16:58:11.325Z,31.33
2023-07-24T17:00:40.390Z,31.31
2023-07-24T17:03:08.466Z,31.36
2023-07-24T17:05:37.924Z,31.78
2023-07-24T17:08:06.470Z,31.52
2023-07-24T17:10:44.524Z,31.96
2023-07-24T17:13:12.635Z,31.90
2023-07-24T17:15:40.904Z,32.64
2023-07-24T17:18:08.882Z,33.45
2023-07-24T17:20:39.440Z,34.16
2023-07-24T17:23:07.453Z,34.02
2023-07-24T17:25:37.332Z,33.60
2023-07-24T17:28:05.650Z,33.41
2023-07-24T17:30:33.685Z,34.08
2023-07-24T17:33:04.022Z,33.92
2023-07-24T17:35:32.243Z,33.39
2023-07-24T17:38:01.630Z,33.42
2023-07-24T17:40:29.605Z,33.44
2023-07-24T17:42:57.488Z,33.61
2023-07-24T17:45:25.584Z,34.37
2023-07-24T17:47:53.640Z,34.75
2023-07-24T17:50:22.853Z,34.01
2023-07-24T17:52:50.901Z,33.92
2023-07-24T17:55:20.517Z,34.55
2023-07-24T17:57:54.225Z,33.60
2023-07-24T18:00:23.937Z,33.37
2023-07-24T18:02:51.968Z,33.01
2023-07-24T18:05:21.151Z,33.39
2023-07-24T18:07:52.198Z,33.18
2023-07-24T18:10:22.602Z,32.97
2023-07-24T18:12:51.021Z,32.39
2023-07-24T18:15:19.014Z,32.90
2023-07-24T18:17:47.176Z,32.56
2023-07-24T18:20:15.793Z,32.42
2023-07-24T18:22:44.030Z,33.53
2023-07-24T18:25:13.089Z,33.76
2023-07-24T18:27:42.644Z,33.73
2023-07-24T18:30:10.725Z,33.74
2023-07-24T18:32:39.261Z,33.84
2023-07-24T18:35:07.851Z,33.73
2023-07-24T18:37:35.839Z,34.32
2023-07-24T18:40:03.968Z,34.15
2023-07-24T18:42:50.694Z,34.01
2023-07-24T18:45:20.331Z,34.19
2023-07-24T18:47:48.454Z,34.25
2023-07-24T18:50:34.103Z,34.73
2023-07-24T18:53:11.830Z,34.50
2023-07-24T18:55:41.489Z,34.65
2023-07-24T18:58:09.584Z,35.00
2023-07-24T19:00:39.009Z,35.52
2023-07-24T19:03:07.106Z,36.31
2023-07-24T19:05:35.641Z,36.45
2023-07-24T19:08:05.855Z,36.52
2023-07-24T19:10:35.040Z,36.76
2023-07-24T19:13:03.254Z,36.96
2023-07-24T19:15:32.392Z,37.59
2023-07-24T19:18:03.154Z,37.74
2023-07-24T19:20:36.031Z,37.84
2023-07-24T19:23:05.089Z,37.83
2023-07-24T19:25:40.399Z,38.00
2023-07-24T19:28:19.694Z,38.38
2023-07-24T19:30:52.989Z,38.47
2023-07-24T19:33:24.733Z,38.63
2023-07-24T19:36:02.061Z,38.68
2023-07-24T19:38:30.172Z,38.86
2023-07-24T19:41:01.275Z,39.53
2023-07-24T19:43:29.942Z,39.38
2023-07-24T19:45:58.485Z,39.69
2023-07-24T19:48:28.303Z,39.71
2023-07-24T19:50:57.925Z,40.25
2023-07-24T19:53:27.585Z,40.07
2023-07-24T19:56:00.650Z,40.15
2023-07-24T19:58:33.545Z,40.64
2023-07-24T20:01:02.348Z,40.48
2023-07-24T20:03:32.435Z,40.60
2023-07-24T20:06:06.381Z,40.33
2023-07-24T20:08:37.810Z,40.44
2023-07-24T20:11:08.835Z,40.83
2023-07-24T20:13:39.424Z,40.47
2023-07-24T20:16:08.656Z,40.64
2023-07-24T20:18:38.746Z,40.59
2023-07-24T20:21:07.492Z,40.64
2023-07-24T20:23:38.074Z,41.27
2023-07-24T20:26:06.400Z,41.13
2023-07-24T20:28:34.862Z,41.35
2023-07-24T20:31:04.180Z,41.97
2023-07-24T20:33:38.758Z,42.20
2023-07-24T20:36:08.560Z,42.73
2023-07-24T20:38:37.209Z,43.28
2023-07-24T20:41:06.119Z,43.46
2023-07-24T20:43:34.053Z,43.66
2023-07-24T20:46:11.169Z,44.07
2023-07-24T20:48:41.843Z,44.21
2023-07-24T20:51:16.860Z,43.99
2023-07-24T20:53:45.072Z,44.31
2023-07-24T20:56:14.015Z,44.27
2023-07-24T20:58:43.130Z,44.65
2023-07-24T21:01:11.502Z,44.65
2023-07-24T21:03:39.429Z,44.68
2023-07-24T21:06:20.362Z,45.03
2023-07-24T21:08:50.557Z,45.51
2023-07-24T21:11:18.942Z,45.76
2023-07-24T21:13:47.285Z,46.06
2023-07-24T21:16:20.462Z,46.08
2023-07-24T21:18:48.638Z,45.97
2023-07-24T21:21:19.729Z,46.41
2023-07-24T21:23:47.785Z,46.31
2023-07-24T21:26:16.880Z,46.35
2023-07-24T21:28:45.075Z,46.60
2023-07-24T21:31:14.157Z,46.44
2023-07-24T21:33:42.726Z,46.65
2023-07-24T21:36:10.714Z,47.03
2023-07-24T21:38:41.305Z,46.81
2023-07-24T21:41:12.048Z,47.20
2023-07-24T21:43:40.171Z,47.49
2023-07-24T21:46:08.252Z,47.39
2023-07-24T21:48:36.198Z,47.41
2023-07-24T21:51:07.562Z,47.54
2023-07-24T21:53:37.626Z,47.93
2023-07-24T21:56:07.627Z,48.01
2023-07-24T21:58:35.701Z,48.37
2023-07-24T22:01:03.830Z,48.49
2023-07-24T22:03:32.057Z,48.76
2023-07-24T22:06:00.039Z,48.60
2023-07-24T22:08:28.069Z,48.93
2023-07-24T22:10:55.978Z,49.19
2023-07-24T22:13:25.438Z,49.62
2023-07-24T22:15:53.541Z,49.95
2023-07-24T22:18:21.493Z,50.19
2023-07-24T22:20:49.428Z,50.45
2023-07-24T22:23:17.298Z,50.46
2023-07-24T22:25:45.357Z,50.48
2023-07-24T22:28:13.626Z,50.87
2023-07-24T22:30:42.990Z,51.05
2023-07-24T22:33:11.099Z,51.22
2023-07-24T22:35:39.160Z,51.35
2023-07-24T22:38:07.502Z,51.49
2023-07-24T22:40:35.611Z,51.58
2023-07-24T22:43:03.600Z,51.77
2023-07-24T22:45:34.454Z,51.79
2023-07-24T22:48:03.957Z,51.88
2023-07-24T22:50:32.040Z,51.96
2023-07-24T22:52:59.943Z,52.23
2023-07-24T22:55:28.006Z,52.18
2023-07-24T22:57:57.790Z,52.19
2023-07-24T23:00:26.027Z,52.46
2023-07-24T23:02:54.029Z,52.67
2023-07-24T23:05:23.411Z,52.81
2023-07-24T23:07:54.267Z,53.12
2023-07-24T23:10:22.502Z,53.22
2023-07-24T23:12:50.504Z,53.29
2023-07-24T23:15:18.631Z,53.26
2023-07-24T23:17:46.634Z,53.34
2023-07-24T23:20:14.945Z,53.29
2023-07-24T23:22:44.245Z,53.38
2023-07-24T23:25:14.795Z,53.45
2023-07-24T23:27:42.734Z,53.46
2023-07-24T23:30:11.411Z,53.58
2023-07-24T23:32:39.593Z,53.75
2023-07-24T23:35:08.994Z,53.64
2023-07-24T23:37:37.283Z,53.74
2023-07-24T23:40:07.808Z,53.65
2023-07-24T23:42:35.770Z,53.47
2023-07-24T23:45:03.958Z,53.53
2023-07-24T23:47:32.876Z,53.69
2023-07-24T23:50:01.112Z,53.80
2023-07-24T23:52:29.701Z,53.91
2023-07-24T23:54:57.603Z,54.19
2023-07-24T23:57:31.778Z,54.34
